createdAt,value
2019-04-16T00:00:13.922Z,26.6
2019-04-16T00:00:59.784Z,26.7
2019-04-16T00:01:54.191Z,26.7
2019-04-16T00:02:38.865Z,26.7
2019-04-16T00:03:34.084Z,26.8
2019-04-16T00:04:18.271Z,26.8
2019-04-16T00:05:08.869Z,26.8
2019-04-16T00:06:05.060Z,26.8
2019-04-16T00:06:48.443Z,26.8
2019-04-16T00:07:39.119Z,26.8
2019-04-16T00:08:37.703Z,26.8
2019-04-16T00:09:18.873Z,26.8
2019-04-16T00:10:09.958Z,26.8
2019-04-16T00:10:58.933Z,26.8
2019-04-16T00:11:49.697Z,26.8
2019-04-16T00:12:38.586Z,26.8
2019-04-16T00:13:29.602Z,26.8
2019-04-16T00:14:17.657Z,26.8
2019-04-16T00:15:09.478Z,26.7
2019-04-16T00:15:59.691Z,26.7
2019-04-16T00:16:54.651Z,26.7
2019-04-16T00:17:40.078Z,26.7
2019-04-16T00:18:29.358Z,26.7
2019-04-16T00:19:19.923Z,26.6
2019-04-16T00:20:15.482Z,26.6
2019-04-16T00:21:00.801Z,26.6
2019-04-16T00:21:50.481Z,26.6
2019-04-16T00:22:40.218Z,26.6
2019-04-16T00:23:30.263Z,26.6
2019-04-16T00:24:26.150Z,26.5
2019-04-16T00:25:11.173Z,26.5
2019-04-16T00:26:05.447Z,26.4
2019-04-16T00:26:50.023Z,26.4
2019-04-16T00:27:41.378Z,26.4
2019-04-16T00:28:35.747Z,26.4
2019-04-16T00:29:20.367Z,26.3
2019-04-16T00:30:15.827Z,26.3
2019-04-16T00:31:00.740Z,26.3
2019-04-16T00:31:51.402Z,26.3
2019-04-16T00:32:47.677Z,26.3
2019-04-16T00:33:29.882Z,26.2
2019-04-16T00:34:23.480Z,26.2
2019-04-16T00:35:17.372Z,26.1
2019-04-16T00:36:01.708Z,26.1
2019-04-16T00:36:57.046Z,26.1
2019-04-16T00:37:41.814Z,26.1
2019-04-16T00:38:53.766Z,26
2019-04-16T00:39:26.642Z,26
2019-04-16T00:40:11.017Z,25.9
2019-04-16T00:41:08.189Z,25.8
2019-04-16T00:41:50.565Z,24.9
2019-04-16T00:42:41.682Z,24.9
2019-04-16T00:43:31.184Z,25
2019-04-16T00:44:21.822Z,24.5
2019-04-16T00:45:12.144Z,24.3
2019-04-16T00:46:00.841Z,24.3
2019-04-16T00:46:51.974Z,24.3
2019-04-16T00:47:41.212Z,24.4
2019-04-16T00:48:32.164Z,24.8
2019-04-16T00:49:27.716Z,25.2
2019-04-16T00:50:12.518Z,25.6
2019-04-16T00:51:02.961Z,25.8
2019-04-16T00:51:52.396Z,26
2019-04-16T00:52:47.697Z,26.2
2019-04-16T00:53:31.958Z,26.3
2019-04-16T00:54:21.990Z,26.3
2019-04-16T00:55:18.212Z,26.4
2019-04-16T00:56:01.931Z,26.4
2019-04-16T00:56:57.085Z,26.5
2019-04-16T00:57:42.483Z,26.6
2019-04-16T00:58:32.889Z,26.6
2019-04-16T00:59:27.897Z,26.7
2019-04-16T01:00:13.359Z,26.6
2019-04-16T01:01:03.426Z,26.7
2019-04-16T01:01:52.723Z,26.7
2019-04-16T01:02:43.390Z,26.7
2019-04-16T01:03:33.153Z,26.7
2019-04-16T01:04:23.535Z,26.7
2019-04-16T01:05:13.600Z,26.7
2019-04-16T01:06:09.457Z,26.8
2019-04-16T01:06:53.208Z,26.7
2019-04-16T01:07:42.153Z,26.7
2019-04-16T01:08:33.303Z,26.7
2019-04-16T01:09:23.625Z,26.7
2019-04-16T01:10:14.405Z,26.7
2019-04-16T01:11:04.973Z,26.7
2019-04-16T01:11:59.019Z,26.7
2019-04-16T01:12:44.166Z,26.7
2019-04-16T01:13:35.439Z,26.6
2019-04-16T01:14:29.262Z,26.6
2019-04-16T01:15:14.211Z,26.6
2019-04-16T01:16:10.342Z,26.6
2019-04-16T01:16:53.600Z,26.6
2019-04-16T01:17:46.560Z,26.6
2019-04-16T01:18:32.839Z,26.6
2019-04-16T01:19:24.336Z,26.5
2019-04-16T01:20:20.977Z,26.5
2019-04-16T01:21:05.045Z,26.5
2019-04-16T01:21:55.422Z,26.5
2019-04-16T01:22:50.442Z,26.4
2019-04-16T01:23:34.997Z,26.4
2019-04-16T01:24:30.386Z,26.4
2019-04-16T01:25:15.019Z,26.4
2019-04-16T01:26:07.340Z,26.3
2019-04-16T01:27:01.427Z,26.3
2019-04-16T01:27:45.012Z,26.3
2019-04-16T01:28:40.196Z,26.3
2019-04-16T01:29:24.481Z,26.2
2019-04-16T01:30:16.722Z,26.2
2019-04-16T01:31:11.521Z,26.1
2019-04-16T01:31:54.731Z,26.1
2019-04-16T01:32:49.273Z,26.1
2019-04-16T01:33:34.449Z,26.1
2019-04-16T01:34:29.199Z,26.1
2019-04-16T01:35:29.623Z,26
2019-04-16T01:36:05.496Z,25.9
2019-04-16T01:37:01.919Z,25.9
2019-04-16T01:37:44.870Z,25.9
2019-04-16T01:38:38.463Z,25.9
2019-04-16T01:39:28.769Z,25.3
2019-04-16T01:40:21.733Z,24.8
2019-04-16T01:41:06.045Z,25.1
2019-04-16T01:42:01.860Z,24.8
2019-04-16T01:42:45.784Z,24.4
2019-04-16T01:43:36.698Z,24.3
2019-04-16T01:44:31.188Z,24.2
2019-04-16T01:45:16.240Z,24.3
2019-04-16T01:46:12.951Z,24.6
2019-04-16T01:46:56.060Z,25
2019-04-16T01:47:47.743Z,25.3
2019-04-16T01:48:42.674Z,25.6
2019-04-16T01:49:26.280Z,25.9
2019-04-16T01:50:21.962Z,26.1
2019-04-16T01:51:06.536Z,26.2
2019-04-16T01:51:57.240Z,26.3
2019-04-16T01:52:52.059Z,26.3
2019-04-16T01:53:36.380Z,26.4
2019-04-16T01:54:32.466Z,26.5
2019-04-16T01:55:17.238Z,26.6
2019-04-16T01:56:08.957Z,26.6
2019-04-16T01:57:02.052Z,26.6
2019-04-16T01:57:47.215Z,26.6
2019-04-16T01:58:43.325Z,26.7
2019-04-16T01:59:27.806Z,26.7
2019-04-16T02:00:19.359Z,26.7
2019-04-16T02:01:14.267Z,26.7
2019-04-16T02:01:56.659Z,26.7
2019-04-16T02:02:52.994Z,26.7
2019-04-16T02:03:37.689Z,26.7
2019-04-16T02:04:30.482Z,26.7
2019-04-16T02:05:18.182Z,26.7
2019-04-16T02:06:07.927Z,26.7
2019-04-16T02:07:03.411Z,26.7
2019-04-16T02:07:47.577Z,26.7
2019-04-16T02:08:40.022Z,26.7
2019-04-16T02:09:39.836Z,26.7
2019-04-16T02:10:18.512Z,26.7
2019-04-16T02:11:14.878Z,26.7
2019-04-16T02:11:58.564Z,26.6
2019-04-16T02:12:54.194Z,26.6
2019-04-16T02:13:38.037Z,26.6
2019-04-16T02:14:31.697Z,26.6
2019-04-16T02:15:24.144Z,26.6
2019-04-16T02:16:09.682Z,26.6
2019-04-16T02:17:05.306Z,26.6
2019-04-16T02:17:48.370Z,26.5
2019-04-16T02:18:41.069Z,26.5
2019-04-16T02:19:33.841Z,26.5
2019-04-16T02:20:19.134Z,26.4
2019-04-16T02:21:15.164Z,26.4
2019-04-16T02:21:58.386Z,26.4
2019-04-16T02:22:54.336Z,26.4
2019-04-16T02:23:39.309Z,26.4
2019-04-16T02:24:29.161Z,26.3
2019-04-16T02:25:24.691Z,26.3
2019-04-16T02:26:09.251Z,26.3
2019-04-16T02:27:05.193Z,26.3
2019-04-16T02:27:49.139Z,26.2
2019-04-16T02:28:38.671Z,26.2
2019-04-16T02:29:34.038Z,26.1
2019-04-16T02:30:18.798Z,26.1
2019-04-16T02:31:20.644Z,26.1
2019-04-16T02:32:02.385Z,26.1
2019-04-16T02:32:50.050Z,26
2019-04-16T02:33:40.333Z,26
2019-04-16T02:34:30.212Z,25.9
2019-04-16T02:35:19.334Z,25.9
2019-04-16T02:36:10.894Z,25.9
2019-04-16T02:37:09.333Z,25.7
2019-04-16T02:37:50.119Z,24.8
2019-04-16T02:38:55.280Z,24.8
2019-04-16T02:39:58.706Z,24.9
2019-04-16T02:40:28.306Z,24.4
2019-04-16T02:41:11.383Z,24.3
2019-04-16T02:42:09.777Z,24.3
2019-04-16T02:42:50.438Z,24.2
2019-04-16T02:43:50.053Z,24.4
2019-04-16T02:44:30.479Z,24.8
2019-04-16T02:45:29.070Z,25.1
2019-04-16T02:46:12.300Z,25.4
2019-04-16T02:47:11.833Z,25.7
2019-04-16T02:47:53.264Z,25.9
2019-04-16T02:48:40.746Z,26.1
2019-04-16T02:49:34.461Z,26.1
2019-04-16T02:50:21.315Z,26.2
2019-04-16T02:51:19.215Z,26.3
2019-04-16T02:52:00.478Z,26.4
2019-04-16T02:53:00.605Z,26.4
2019-04-16T02:53:41.167Z,26.5
2019-04-16T02:54:40.860Z,26.5
2019-04-16T02:55:22.438Z,26.6
2019-04-16T02:56:20.733Z,26.6
2019-04-16T02:57:03.040Z,26.6
2019-04-16T02:57:52.045Z,26.6
2019-04-16T02:58:45.272Z,26.6
2019-04-16T02:59:31.266Z,26.6
2019-04-16T03:00:26.171Z,26.6
2019-04-16T03:01:12.055Z,26.6
2019-04-16T03:02:01.981Z,26.6
2019-04-16T03:02:56.666Z,26.6
2019-04-16T03:03:41.889Z,26.6
2019-04-16T03:07:13.473Z,26.6
2019-04-16T03:07:56.238Z,26.6
2019-04-16T03:08:46.131Z,26.6
2019-04-16T03:09:43.211Z,26.6
2019-04-16T03:10:27.715Z,26.6
2019-04-16T03:11:24.631Z,26.6
2019-04-16T03:12:07.473Z,26.6
2019-04-16T03:13:03.811Z,26.5
2019-04-16T03:13:47.978Z,26.5
2019-04-16T03:14:40.350Z,26.4
2019-04-16T03:15:25.969Z,26.4
2019-04-16T03:16:18.681Z,26.4
2019-04-16T03:17:15.965Z,26.4
2019-04-16T03:17:58.018Z,26.4
2019-04-16T03:18:54.138Z,26.3
2019-04-16T03:19:41.301Z,26.3
2019-04-16T03:20:34.188Z,26.3
2019-04-16T03:21:18.128Z,26.3
2019-04-16T03:22:14.084Z,26.3
2019-04-16T03:22:56.990Z,26.2
2019-04-16T03:23:48.160Z,26.2
2019-04-16T03:24:43.025Z,26.1
2019-04-16T03:25:28.072Z,26.1
2019-04-16T03:26:24.030Z,26.1
2019-04-16T03:27:13.211Z,26.1
2019-04-16T03:28:03.997Z,26
2019-04-16T03:28:48.625Z,26
2019-04-16T03:29:41.960Z,25.9
2019-04-16T03:30:28.563Z,25.9
2019-04-16T03:31:33.028Z,25.9
2019-04-16T03:32:18.734Z,25.9
2019-04-16T03:32:59.729Z,25.8
2019-04-16T03:33:59.967Z,25.8
2019-04-16T03:34:39.222Z,24.9
2019-04-16T03:35:35.454Z,24.7
2019-04-16T03:36:19.800Z,24.9
2019-04-16T03:37:12.265Z,24.9
2019-04-16T03:38:06.163Z,24.4
2019-04-16T03:38:52.722Z,24.3
2019-04-16T03:39:45.512Z,24.2
2019-04-16T03:40:35.632Z,24.2
2019-04-16T03:41:20.316Z,24.4
2019-04-16T03:42:10.847Z,24.8
2019-04-16T03:43:10.926Z,25.1
2019-04-16T03:43:48.815Z,25.5
2019-04-16T03:44:45.432Z,25.7
2019-04-16T03:45:29.607Z,25.9
2019-04-16T03:46:23.903Z,26.1
2019-04-16T03:47:10.144Z,26.1
2019-04-16T03:48:02.312Z,26.3
2019-04-16T03:48:52.518Z,26.3
2019-04-16T03:49:38.979Z,26.4
2019-04-16T03:50:36.076Z,26.5
2019-04-16T03:51:20.891Z,26.6
2019-04-16T03:52:17.659Z,26.6
2019-04-16T03:53:00.391Z,26.7
2019-04-16T03:53:56.823Z,26.8
2019-04-16T03:54:39.581Z,26.8
2019-04-16T03:55:36.303Z,26.8
2019-04-16T03:56:21.021Z,26.8
2019-04-16T03:57:13.600Z,26.9
2019-04-16T03:58:07.996Z,26.9
2019-04-16T03:58:50.768Z,26.9
2019-04-16T03:59:44.671Z,26.9
2019-04-16T04:00:30.115Z,26.9
2019-04-16T04:01:25.966Z,26.9
2019-04-16T04:02:15.045Z,26.9
2019-04-16T04:03:04.727Z,26.9
2019-04-16T04:03:50.787Z,26.9
2019-04-16T04:04:41.485Z,26.9
2019-04-16T04:05:31.463Z,26.9
2019-04-16T04:06:22.090Z,26.9
2019-04-16T04:07:18.581Z,26.9
2019-04-16T04:08:05.594Z,26.9
2019-04-16T04:09:01.190Z,26.9
2019-04-16T04:09:41.228Z,26.9
2019-04-16T04:10:47.493Z,26.9
2019-04-16T04:11:21.788Z,26.9
2019-04-16T04:12:18.818Z,26.8
2019-04-16T04:13:00.996Z,26.8
2019-04-16T04:13:57.067Z,26.8
2019-04-16T04:14:42.717Z,26.8
2019-04-16T04:15:37.097Z,26.8
2019-04-16T04:16:23.057Z,26.7
2019-04-16T04:17:18.865Z,26.7
2019-04-16T04:18:01.595Z,26.6
2019-04-16T04:18:53.853Z,26.6
2019-04-16T04:19:47.290Z,26.6
2019-04-16T04:20:31.495Z,26.5
2019-04-16T04:21:28.657Z,26.5
2019-04-16T04:22:12.241Z,26.4
2019-04-16T04:23:08.378Z,26.4
2019-04-16T04:23:52.286Z,26.4
2019-04-16T04:24:41.034Z,26.4
2019-04-16T04:25:38.104Z,26.3
2019-04-16T04:26:22.492Z,26.3
2019-04-16T04:27:23.811Z,26.3
2019-04-16T04:28:02.642Z,26.2
2019-04-16T04:28:59.156Z,26.2
2019-04-16T04:29:46.129Z,26.1
2019-04-16T04:30:40.026Z,25.9
2019-04-16T04:31:22.624Z,24.9
2019-04-16T04:32:13.896Z,24.8
2019-04-16T04:33:10.958Z,24.8
2019-04-16T04:33:53.716Z,24.5
2019-04-16T04:34:50.679Z,24.3
2019-04-16T04:35:34.019Z,24.1
2019-04-16T04:36:35.768Z,24.1
2019-04-16T04:37:13.438Z,24.1
2019-04-16T04:38:10.943Z,24.4
2019-04-16T04:38:53.634Z,24.8
2019-04-16T04:39:49.892Z,25.1
2019-04-16T04:40:55.483Z,25.4
2019-04-16T04:41:30.724Z,25.8
2019-04-16T04:42:19.718Z,25.8
2019-04-16T04:43:11.413Z,25.9
2019-04-16T04:43:55.326Z,26
2019-04-16T04:44:50.459Z,26.1
2019-04-16T04:45:34.671Z,26.2
2019-04-16T04:46:26.331Z,26.3
2019-04-16T04:47:21.853Z,26.4
2019-04-16T04:48:03.746Z,26.4
2019-04-16T04:49:04.021Z,26.4
2019-04-16T04:49:43.618Z,26.5
2019-04-16T04:50:39.925Z,26.5
2019-04-16T04:51:24.954Z,26.5
2019-04-16T04:52:21.650Z,26.6
2019-04-16T04:53:04.893Z,26.6
2019-04-16T04:54:01.184Z,26.6
2019-04-16T04:54:44.200Z,26.6
2019-04-16T04:55:35.812Z,26.6
2019-04-16T04:56:35.178Z,26.6
2019-04-16T04:57:15.041Z,26.6
2019-04-16T04:58:10.402Z,26.6
2019-04-16T04:58:54.782Z,26.5
2019-04-16T04:59:46.447Z,26.5
2019-04-16T05:00:37.411Z,26.5
2019-04-16T05:01:24.807Z,26.5
2019-04-16T05:02:21.650Z,26.5
2019-04-16T05:03:03.959Z,26.4
2019-04-16T05:04:01.850Z,26.4
2019-04-16T05:04:45.220Z,26.4
2019-04-16T05:05:36.484Z,26.4
2019-04-16T05:06:32.096Z,26.4
2019-04-16T05:07:14.888Z,26.4
2019-04-16T05:08:10.430Z,26.3
2019-04-16T05:08:57.530Z,26.3
2019-04-16T05:09:47.636Z,26.3
2019-04-16T05:11:02.620Z,26.2
2019-04-16T05:11:27.457Z,26.2
2019-04-16T05:12:25.539Z,26.1
2019-04-16T05:13:05.542Z,26.1
2019-04-16T05:14:01.523Z,26.1
2019-04-16T05:14:46.238Z,26
2019-04-16T05:15:39.617Z,26
2019-04-16T05:16:26.344Z,25.9
2019-04-16T05:17:18.256Z,25.9
2019-04-16T05:18:14.241Z,25.9
2019-04-16T05:18:55.506Z,25.8
2019-04-16T05:19:50.066Z,25.8
2019-04-16T05:20:40.369Z,25.8
2019-04-16T05:21:29.430Z,25.8
2019-04-16T05:22:23.576Z,25.7
2019-04-16T05:23:08.150Z,25.6
2019-04-16T05:24:03.004Z,25.6
2019-04-16T05:24:48.671Z,25.6
2019-04-16T05:25:43.241Z,25.6
2019-04-16T05:26:27.988Z,25.3
2019-04-16T05:27:20.016Z,24.6
2019-04-16T05:28:13.254Z,24.7
2019-04-16T05:28:57.518Z,24.8
2019-04-16T05:29:52.308Z,24.8
2019-04-16T05:30:37.078Z,24.7
2019-04-16T05:31:36.828Z,24.4
2019-04-16T05:32:18.215Z,24.1
2019-04-16T05:33:13.469Z,24.1
2019-04-16T05:34:07.701Z,24.3
2019-04-16T05:34:48.516Z,24.6
2019-04-16T05:35:43.109Z,24.9
2019-04-16T05:36:32.372Z,25.3
2019-04-16T05:37:24.681Z,25.6
2019-04-16T05:38:07.343Z,25.7
2019-04-16T05:39:06.890Z,25.8
2019-04-16T05:39:48.283Z,26
2019-04-16T05:40:45.136Z,26.1
2019-04-16T05:41:32.407Z,26.3
2019-04-16T05:42:18.835Z,26.3
2019-04-16T05:43:09.182Z,26.4
2019-04-16T05:44:04.067Z,26.4
2019-04-16T05:44:48.410Z,26.5
2019-04-16T05:45:44.658Z,26.6
2019-04-16T05:46:28.424Z,26.6
2019-04-16T05:47:24.429Z,26.6
2019-04-16T05:48:08.512Z,26.7
2019-04-16T05:49:04.482Z,26.7
2019-04-16T05:49:48.477Z,26.7
2019-04-16T05:50:39.929Z,26.7
2019-04-16T05:51:34.499Z,26.7
2019-04-16T05:52:20.154Z,26.7
2019-04-16T05:53:19.564Z,26.7
2019-04-16T05:53:58.784Z,26.7
2019-04-16T05:54:55.351Z,26.7
2019-04-16T05:55:39.182Z,26.7
2019-04-16T05:56:33.733Z,26.6
2019-04-16T05:57:19.336Z,26.6
2019-04-16T05:58:09.706Z,26.6
2019-04-16T05:59:05.291Z,26.6
2019-04-16T05:59:50.006Z,26.5
2019-04-16T06:00:46.229Z,26.5
2019-04-16T06:01:29.926Z,26.5
2019-04-16T06:02:28.166Z,26.4
2019-04-16T06:05:07.264Z,26.3
2019-04-16T06:06:02.454Z,26.3
2019-04-16T06:06:46.886Z,26.2
2019-04-16T06:07:43.156Z,26.2
2019-04-16T06:08:27.249Z,26.1
2019-04-16T06:09:24.217Z,26.1
2019-04-16T06:10:19.034Z,26.1
2019-04-16T06:11:04.571Z,26
2019-04-16T06:11:47.973Z,26
2019-04-16T06:12:46.486Z,25.9
2019-04-16T06:13:28.244Z,25.9
2019-04-16T06:14:29.651Z,25.9
2019-04-16T06:15:07.446Z,25.8
2019-04-16T06:16:02.876Z,25.8
2019-04-16T06:16:47.281Z,25.8
2019-04-16T06:17:42.510Z,25.8
2019-04-16T06:18:27.451Z,25.7
2019-04-16T06:19:21.835Z,25.7
2019-04-16T06:20:07.818Z,25.6
2019-04-16T06:21:02.683Z,25.3
2019-04-16T06:21:47.983Z,24.6
2019-04-16T06:22:39.981Z,24.7
2019-04-16T06:23:33.295Z,24.7
2019-04-16T06:24:18.757Z,24.9
2019-04-16T06:25:19.570Z,24.4
2019-04-16T06:25:58.872Z,24.2
2019-04-16T06:26:54.290Z,24.1
2019-04-16T06:27:38.975Z,24.1
2019-04-16T06:28:28.915Z,24.3
2019-04-16T06:29:18.702Z,24.8
2019-04-16T06:30:13.103Z,25.1
2019-04-16T06:30:58.444Z,25.4
2019-04-16T06:31:49.947Z,25.6
2019-04-16T06:32:38.420Z,25.8
2019-04-16T06:33:29.402Z,25.9
2019-04-16T06:34:18.930Z,26.1
2019-04-16T06:35:09.017Z,26.2
2019-04-16T06:35:58.814Z,26.3
2019-04-16T06:36:49.735Z,26.4
2019-04-16T06:37:39.704Z,26.5
2019-04-16T06:38:28.999Z,26.6
2019-04-16T06:39:19.967Z,26.6
2019-04-16T06:40:12.194Z,26.6
2019-04-16T06:41:04.984Z,26.7
2019-04-16T06:42:01.294Z,26.8
2019-04-16T06:42:42.213Z,26.8
2019-04-16T06:43:36.859Z,26.8
2019-04-16T06:44:20.516Z,26.8
2019-04-16T06:45:15.548Z,26.8
2019-04-16T06:45:59.471Z,26.8
2019-04-16T06:46:50.764Z,26.8
2019-04-16T06:47:44.814Z,26.8
2019-04-16T06:48:30.389Z,26.8
2019-04-16T06:49:27.569Z,26.8
2019-04-16T06:50:10.806Z,26.8
2019-04-16T06:50:59.638Z,26.8
2019-04-16T06:51:54.053Z,26.8
2019-04-16T06:52:40.256Z,26.7
2019-04-16T06:53:38.883Z,26.7
2019-04-16T06:54:28.992Z,26.6
2019-04-16T06:55:13.931Z,26.6
2019-04-16T06:56:00.241Z,26.6
2019-04-16T06:56:53.659Z,26.6
2019-04-16T06:57:46.091Z,26.5
2019-04-16T06:59:01.096Z,26.5
2019-04-16T06:59:31.726Z,26.4
2019-04-16T07:00:17.701Z,26.4
2019-04-16T07:01:07.065Z,26.4
2019-04-16T07:01:52.551Z,26.3
2019-04-16T07:05:12.043Z,26.2
2019-04-16T07:05:57.688Z,26.1
2019-04-16T07:06:50.630Z,26.1
2019-04-16T07:07:54.767Z,26.1
2019-04-16T07:08:53.003Z,26
2019-04-16T07:09:16.177Z,26
2019-04-16T07:10:07.142Z,25.9
2019-04-16T07:10:56.546Z,25.9
2019-04-16T07:12:01.181Z,25.9
2019-04-16T07:12:44.437Z,25.8
2019-04-16T07:13:27.560Z,25.8
2019-04-16T07:14:25.894Z,25.8
2019-04-16T07:15:07.355Z,25
2019-04-16T07:16:02.996Z,24.8
2019-04-16T07:16:48.420Z,24.7
2019-04-16T07:17:47.474Z,24.8
2019-04-16T07:18:32.060Z,24.5
2019-04-16T07:19:25.019Z,24.2
2019-04-16T07:20:18.479Z,24.1
2019-04-16T07:20:57.907Z,24.1
2019-04-16T07:21:53.599Z,24.2
2019-04-16T07:22:37.912Z,24.6
2019-04-16T07:23:36.412Z,24.9
2019-04-16T07:24:31.275Z,25.4
2019-04-16T07:25:29.448Z,25.6
2019-04-16T07:26:06.786Z,25.8
2019-04-16T07:27:04.692Z,25.9
2019-04-16T07:28:00.150Z,26.1
2019-04-16T07:28:38.252Z,26.3
2019-04-16T07:29:22.645Z,26.3
2019-04-16T07:30:26.598Z,26.4
2019-04-16T07:31:02.129Z,26.6
2019-04-16T07:31:56.498Z,26.6
2019-04-16T07:32:39.716Z,26.7
2019-04-16T07:33:29.814Z,26.8
2019-04-16T07:34:18.194Z,26.8
2019-04-16T07:35:09.568Z,26.8
2019-04-16T07:35:59.822Z,26.9
2019-04-16T07:36:49.306Z,26.9
2019-04-16T07:37:43.320Z,26.9
2019-04-16T07:38:28.861Z,26.9
2019-04-16T07:39:47.441Z,26.9
2019-04-16T07:40:16.558Z,26.9
2019-04-16T07:41:00.508Z,26.9
2019-04-16T07:42:07.732Z,26.9
2019-04-16T07:43:51.736Z,26.9
2019-04-16T07:44:16.683Z,26.9
2019-04-16T07:44:57.236Z,26.9
2019-04-16T07:45:42.740Z,26.9
2019-04-16T07:46:51.684Z,26.9
2019-04-16T07:47:28.447Z,26.8
2019-04-16T07:48:16.925Z,26.8
2019-04-16T07:49:06.868Z,26.8
2019-04-16T07:50:09.236Z,26.8
2019-04-16T07:50:43.210Z,26.7
2019-04-16T07:51:38.705Z,26.6
2019-04-16T07:52:23.415Z,26.6
2019-04-16T07:53:19.675Z,26.6
2019-04-16T07:54:08.726Z,26.6
2019-04-16T07:54:52.831Z,26.5
2019-04-16T07:55:43.235Z,26.4
2019-04-16T07:56:33.807Z,26.4
2019-04-16T07:57:23.612Z,26.4
2019-04-16T07:58:14.243Z,26.4
2019-04-16T07:59:10.467Z,26.3
2019-04-16T07:59:54.102Z,26.3
2019-04-16T08:00:50.347Z,26.3
2019-04-16T08:01:33.632Z,26.3
2019-04-16T08:02:31.784Z,26.2
2019-04-16T08:03:15.957Z,26.1
2019-04-16T08:04:13.714Z,26.1
2019-04-16T08:04:54.525Z,26.1
2019-04-16T08:05:50.292Z,26
2019-04-16T08:06:34.883Z,25.9
2019-04-16T08:07:29.727Z,25.9
2019-04-16T08:08:15.390Z,25.9
2019-04-16T08:09:08.727Z,25.6
2019-04-16T08:09:54.715Z,24.9
2019-04-16T08:10:44.672Z,24.9
2019-04-16T08:11:34.152Z,24.8
2019-04-16T08:12:42.892Z,24.9
2019-04-16T08:13:17.940Z,24.5
2019-04-16T08:14:16.454Z,24.3
2019-04-16T08:14:55.169Z,24.1
2019-04-16T08:15:45.979Z,24.1
2019-04-16T08:16:51.172Z,24.4
2019-04-16T08:17:25.686Z,24.9
2019-04-16T08:18:14.908Z,25.2
2019-04-16T08:19:05.760Z,25.4
2019-04-16T08:20:04.162Z,25.6
2019-04-16T08:20:44.478Z,25.9
2019-04-16T08:21:35.692Z,26
2019-04-16T08:22:29.238Z,26.2
2019-04-16T08:23:21.729Z,26.3
2019-04-16T08:24:06.219Z,26.4
2019-04-16T08:25:06.881Z,26.6
2019-04-16T08:25:44.827Z,26.6
2019-04-16T08:26:35.871Z,26.8
2019-04-16T08:27:29.099Z,26.8
2019-04-16T08:28:17.181Z,26.9
2019-04-16T08:29:07.983Z,26.9
2019-04-16T08:29:54.604Z,26.9
2019-04-16T08:30:49.972Z,26.9
2019-04-16T08:31:37.507Z,27
2019-04-16T08:32:29.790Z,27
2019-04-16T08:33:20.133Z,27
2019-04-16T08:34:06.214Z,27
2019-04-16T08:34:55.087Z,27
2019-04-16T08:35:46.689Z,27
2019-04-16T08:36:36.153Z,27
2019-04-16T08:37:26.492Z,27
2019-04-16T08:38:16.014Z,27
2019-04-16T08:39:13.176Z,26.9
2019-04-16T08:39:56.081Z,26.9
2019-04-16T08:40:51.881Z,26.9
2019-04-16T08:41:36.801Z,26.9
2019-04-16T08:42:51.581Z,26.8
2019-04-16T08:43:16.885Z,26.8
2019-04-16T08:44:17.991Z,26.8
2019-04-16T08:44:57.136Z,26.8
2019-04-16T08:45:49.621Z,26.7
2019-04-16T08:46:42.268Z,26.7
2019-04-16T08:47:27.738Z,26.6
2019-04-16T08:48:26.619Z,26.6
2019-04-16T08:49:07.321Z,26.6
2019-04-16T08:50:04.637Z,26.5
2019-04-16T08:50:49.944Z,26.5
2019-04-16T08:51:46.703Z,26.4
2019-04-16T08:52:27.618Z,26.4
2019-04-16T08:53:23.703Z,26.4
2019-04-16T08:54:07.504Z,26.3
2019-04-16T08:55:04.601Z,26.3
2019-04-16T08:55:47.878Z,26.3
2019-04-16T08:56:38.238Z,26.3
2019-04-16T08:57:31.399Z,26.2
2019-04-16T08:58:22.270Z,26.1
2019-04-16T08:59:32.420Z,26.1
2019-04-16T08:59:57.580Z,26.1
2019-04-16T09:00:54.403Z,26
2019-04-16T09:01:37.416Z,26
2019-04-16T09:02:34.182Z,25.9
2019-04-16T09:03:21.658Z,25.3
2019-04-16T09:04:12.419Z,25
2019-04-16T09:04:57.086Z,24.9
2019-04-16T09:05:51.915Z,25
2019-04-16T09:06:38.100Z,24.5
2019-04-16T09:07:31.965Z,24.3
2019-04-16T09:08:29.724Z,24.1
2019-04-16T09:09:34.257Z,24.1
2019-04-16T09:10:33.770Z,24.6
2019-04-16T09:10:52.635Z,25.1
2019-04-16T09:11:44.680Z,25.2
2019-04-16T09:12:31.564Z,25.5
2019-04-16T09:13:22.854Z,25.6
2019-04-16T09:14:09.601Z,25.8
2019-04-16T09:15:06.870Z,26
2019-04-16T09:16:04.595Z,26.2
2019-04-16T09:16:38.837Z,26.3
2019-04-16T09:17:28.032Z,26.4
2019-04-16T09:18:19.814Z,26.5
2019-04-16T09:19:10.056Z,26.6
2019-04-16T09:20:06.938Z,26.6
2019-04-16T09:20:48.821Z,26.8
2019-04-16T09:21:45.599Z,26.8
2019-04-16T09:22:30.581Z,26.8
2019-04-16T09:23:27.411Z,26.9
2019-04-16T09:24:19.450Z,26.9
2019-04-16T09:25:01.124Z,26.9
2019-04-16T09:26:15.338Z,26.9
2019-04-16T09:27:02.250Z,26.9
2019-04-16T09:27:40.469Z,26.9
2019-04-16T09:28:39.981Z,26.9
2019-04-16T09:29:20.215Z,26.9
2019-04-16T09:30:00.342Z,26.9
2019-04-16T09:30:57.364Z,26.9
2019-04-16T09:31:39.933Z,26.9
2019-04-16T09:32:36.536Z,26.9
2019-04-16T09:33:19.438Z,26.9
2019-04-16T09:34:16.006Z,26.9
2019-04-16T09:35:25.851Z,26.8
2019-04-16T09:35:54.472Z,26.8
2019-04-16T09:36:40.857Z,26.8
2019-04-16T09:37:40.847Z,26.8
2019-04-16T09:38:37.681Z,26.7
2019-04-16T09:39:12.335Z,26.7
2019-04-16T09:40:15.420Z,26.6
2019-04-16T09:40:54.978Z,26.6
2019-04-16T09:41:41.194Z,26.6
2019-04-16T09:42:32.148Z,26.6
2019-04-16T09:43:29.002Z,26.5
2019-04-16T09:44:10.869Z,26.4
2019-04-16T09:45:07.358Z,26.4
2019-04-16T09:45:52.146Z,26.4
2019-04-16T09:47:12.153Z,26.4
2019-04-16T09:47:38.750Z,26.3
2019-04-16T09:48:21.398Z,26.3
2019-04-16T09:49:16.350Z,26.3
2019-04-16T09:50:00.952Z,26.2
2019-04-16T09:50:58.737Z,26.2
2019-04-16T09:51:41.642Z,26.1
2019-04-16T09:52:34.355Z,26.1
2019-04-16T09:53:43.970Z,26.1
2019-04-16T09:54:19.077Z,26
2019-04-16T09:55:01.617Z,26
2019-04-16T09:55:59.064Z,25.9
2019-04-16T09:56:42.592Z,25.9
2019-04-16T09:57:40.547Z,25.7
2019-04-16T09:58:27.304Z,24.8
2019-04-16T09:59:20.465Z,24.8
2019-04-16T10:00:02.893Z,24.5
2019-04-16T10:00:55.565Z,24.3
2019-04-16T10:01:42.980Z,24.1
2019-04-16T10:02:33.194Z,24.1
2019-04-16T10:03:23.517Z,24.2
2019-04-16T10:06:10.349Z,25.3
2019-04-16T10:06:57.451Z,25.8
2019-04-16T10:07:50.320Z,25.9
2019-04-16T10:08:46.223Z,26.1
2019-04-16T10:09:32.696Z,26.2
2019-04-16T10:10:18.559Z,26.3
2019-04-16T10:11:20.539Z,26.3
2019-04-16T10:12:01.257Z,26.4
2019-04-16T10:12:47.964Z,26.5
2019-04-16T10:13:45.828Z,26.6
2019-04-16T10:14:27.913Z,26.6
2019-04-16T10:15:18.055Z,26.6
2019-04-16T10:16:07.008Z,26.6
2019-04-16T10:16:57.950Z,26.6
2019-04-16T10:17:47.949Z,26.6
2019-04-16T10:18:44.975Z,26.6
2019-04-16T10:19:31.775Z,26.6
2019-04-16T10:20:18.758Z,26.6
2019-04-16T10:21:08.116Z,26.6
2019-04-16T10:22:04.474Z,26.6
2019-04-16T10:22:47.561Z,26.7
2019-04-16T10:23:38.736Z,26.7
2019-04-16T10:24:29.051Z,26.7
2019-04-16T10:25:18.488Z,26.7
2019-04-16T10:26:08.055Z,26.6
2019-04-16T10:27:07.922Z,26.7
2019-04-16T10:27:48.728Z,26.6
2019-04-16T10:28:44.620Z,26.6
2019-04-16T10:29:29.509Z,26.6
2019-04-16T10:30:19.534Z,26.6
2019-04-16T10:31:08.815Z,26.6
2019-04-16T10:31:59.565Z,26.6
2019-04-16T10:32:49.520Z,26.6
2019-04-16T10:33:38.829Z,26.5
2019-04-16T10:34:29.907Z,26.5
2019-04-16T10:35:20.050Z,26.4
2019-04-16T10:36:16.847Z,26.4
2019-04-16T10:36:59.106Z,26.4
2019-04-16T10:37:49.206Z,26.4
2019-04-16T10:38:39.143Z,26.3
2019-04-16T10:39:30.365Z,26.3
2019-04-16T10:40:20.571Z,26.3
2019-04-16T10:41:08.738Z,26.3
2019-04-16T10:42:02.538Z,26.2
2019-04-16T10:42:50.037Z,26.2
2019-04-16T10:43:53.764Z,26.1
2019-04-16T10:44:29.204Z,26.1
2019-04-16T10:45:20.518Z,26.1
2019-04-16T10:46:13.243Z,26
2019-04-16T10:47:00.789Z,26
2019-04-16T10:47:50.619Z,26
2019-04-16T10:48:40.193Z,25.9
2019-04-16T10:49:29.919Z,25.9
2019-04-16T10:50:18.810Z,25.9
2019-04-16T10:51:16.836Z,25.8
2019-04-16T10:52:00.928Z,25.8
2019-04-16T10:52:58.314Z,25.8
2019-04-16T10:53:39.321Z,25.6
2019-04-16T10:54:30.023Z,25
2019-04-16T10:55:26.311Z,24.9
2019-04-16T10:56:10.774Z,24.6
2019-04-16T10:57:11.045Z,24.4
2019-04-16T10:57:51.264Z,24.1
2019-04-16T10:58:41.197Z,24.1
2019-04-16T10:59:30.807Z,24.2
2019-04-16T11:00:20.964Z,24.6
2019-04-16T11:01:11.403Z,24.9
2019-04-16T11:02:01.309Z,25.3
2019-04-16T11:02:51.030Z,25.6
2019-04-16T11:03:45.044Z,25.9
2019-04-16T11:04:31.763Z,26.1
2019-04-16T11:05:29.380Z,26.2
2019-04-16T11:06:11.823Z,26.3
2019-04-16T11:07:01.459Z,26.4
2019-04-16T11:07:52.739Z,26.4
2019-04-16T11:08:42.660Z,26.5
2019-04-16T11:09:31.855Z,26.6
2019-04-16T11:10:23.045Z,26.6
2019-04-16T11:11:11.327Z,26.6
2019-04-16T11:12:06.804Z,26.6
2019-04-16T11:12:52.310Z,26.6
2019-04-16T11:13:41.884Z,26.6
2019-04-16T11:14:32.418Z,26.6
2019-04-16T11:15:21.867Z,26.6
2019-04-16T11:16:11.680Z,26.6
2019-04-16T11:17:02.261Z,26.6
2019-04-16T11:17:52.397Z,26.6